Pagrindinis puslapis
METAR-TAF:

METAR-TAF

Oro uostai :

Mountain Village, Aliaska, Jungtinės Amerikos Valstijos

platuma: 62-05-43N, ilguma: 163-40-55W, Aukštis: 103 m

Dabartinis oras

Ataskaita buvo paskelbta 24 minutes, ne 07:02 UTC
Vėjas 7 kt iš Šiaurės
Temperatūra -18°C
Drėgmė 65%
Slėgis 1015 hPa
Matomumas: 16.1 km
Giedras dangus

METAR: PAMO 280702Z AUTO 01007KT 10SM CLR M18/M23 A2998 RMK AO2 SLP164 T11831228 FZRANO

Laikas: 22:26 (07:26 UTC)


TAF: trūkstamas

Orai ataskaitas ir orų prognozės (METAR, TAF).

turimą stotys yra geltonos ir raudonos taškus žemėlapyje.

Perkelti pele per norėdami pamatyti stoties vardą.

Tada spustelėkite, norėdami matyti oro stebėjimo ir prognozės.

Norėdami pakeisti žemėlapį: spustelėkite ant žalios mygtukų su juodo kryžiaus žemyn,; žalią mygtuką su brūkšneliu, jei norite nutolinti; arba žalių rodyklių gretimoms žemėlapius.


METAR-TAF: